Time;durP1;ratioP1;P1;durP2;ratioP2;P2;SDS_P1;SDS_P2;PMS_P1;PMS_P2;Temp;Humidity;BMP_temperature;BMP_pressure;BME280_temperature;BME280_humidity;BME280_pressure;Samples;Min_cycle;Max_cycle;Signal;HPM_P1;HPM_P2
2024/02/22 00:01:10;;;;;;;4.00;3.70;;;14.30;71.90;15.90;99635.00;;;;4993205;28;20217;-73
2024/02/22 00:03:38;;;;;;;4.13;3.72;;;14.30;71.80;16.00;99640.00;;;;4992858;28;20232;-72
2024/02/22 00:06:06;;;;;;;4.05;3.75;;;14.40;71.90;16.00;99643.00;;;;4993108;28;20272;-73
2024/02/22 00:08:33;;;;;;;4.32;4.03;;;14.40;71.90;16.00;99640.00;;;;4993144;28;20284;-73
2024/02/22 00:11:01;;;;;;;3.90;3.60;;;14.40;71.90;16.00;99631.00;;;;4992978;28;20201;-72
2024/02/22 00:13:29;;;;;;;3.67;3.38;;;14.40;71.90;16.00;99623.00;;;;4992741;28;20224;-71
2024/02/22 00:15:57;;;;;;;4.35;3.95;;;14.40;71.90;16.00;99615.00;;;;5012111;28;20204;-71
2024/02/22 00:18:24;;;;;;;3.75;3.45;;;14.40;72.00;16.00;99602.00;;;;5011894;28;20718;-71
2024/02/22 00:20:52;;;;;;;3.90;3.60;;;14.40;71.90;16.00;99600.00;;;;5011629;28;20200;-71
2024/02/22 00:23:19;;;;;;;3.95;3.65;;;14.40;71.90;16.00;99605.00;;;;5007209;28;20304;-71
2024/02/22 00:25:46;;;;;;;3.45;3.15;;;14.50;72.00;16.10;99601.00;;;;4993544;28;20225;-71
2024/02/22 00:28:13;;;;;;;3.95;3.65;;;14.50;72.60;16.10;99593.00;;;;4992961;28;20284;-71
2024/02/22 00:30:40;;;;;;;4.15;3.75;;;14.50;72.00;16.10;99597.00;;;;4993376;28;20293;-71
2024/02/22 00:33:08;;;;;;;4.20;3.90;;;14.50;72.00;16.10;99589.00;;;;4991813;28;20200;-71
2024/02/22 00:35:35;;;;;;;4.07;3.75;;;14.50;72.00;16.10;99589.00;;;;4992413;28;20201;-71
2024/02/22 00:38:03;;;;;;;4.45;4.05;;;14.50;72.00;16.10;99595.00;;;;4993117;28;20284;-71
2024/02/22 00:40:30;;;;;;;4.45;4.05;;;14.50;72.00;16.10;99595.00;;;;4992660;28;20228;-71
2024/02/22 00:42:57;;;;;;;4.22;3.83;;;14.60;72.10;16.20;99590.00;;;;4999927;28;20238;-71
2024/02/22 00:45:24;;;;;;;5.72;4.18;;;14.60;72.10;16.20;99586.00;;;;4992532;28;20228;-72
2024/02/22 00:47:51;;;;;;;4.32;3.92;;;14.60;72.10;16.20;99588.00;;;;4992801;28;20292;-71
2024/02/22 00:50:20;;;;;;;3.75;3.45;;;14.60;72.10;16.20;99579.00;;;;4992135;28;20288;-71
2024/02/22 00:52:48;;;;;;;4.07;3.70;;;14.60;72.10;16.20;99584.00;;;;4992608;28;20201;-71
2024/02/22 00:55:15;;;;;;;4.18;3.88;;;14.70;72.10;16.20;99575.00;;;;4999759;28;20255;-71
2024/02/22 00:57:42;;;;;;;3.80;3.50;;;14.70;72.00;16.20;99569.00;;;;4992114;28;20225;-71
2024/02/22 01:00:11;;;;;;;4.25;3.88;;;14.70;72.00;16.20;99570.00;;;;4992211;28;20199;-71
2024/02/22 01:02:38;;;;;;;3.55;3.25;;;14.70;72.10;16.20;99568.00;;;;4991705;28;20776;-71
2024/02/22 01:05:06;;;;;;;3.60;3.30;;;14.70;72.00;16.20;99560.00;;;;5003949;28;20220;-71
2024/02/22 01:07:34;;;;;;;3.83;3.53;;;14.70;72.00;16.30;99564.00;;;;4992469;28;20292;-72
2024/02/22 01:10:03;;;;;;;3.60;3.30;;;14.70;72.00;16.30;99548.00;;;;4992216;28;20276;-72
2024/02/22 01:12:31;;;;;;;3.65;3.35;;;14.70;72.00;16.30;99555.00;;;;4996905;28;20228;-72
2024/02/22 01:14:58;;;;;;;3.17;2.92;;;14.70;72.00;16.30;99547.00;;;;4991922;28;20222;-72
2024/02/22 01:17:25;;;;;;;3.75;3.35;;;14.70;72.00;16.30;99539.00;;;;4991876;28;20236;-72
2024/02/22 01:19:52;;;;;;;3.40;3.10;;;14.70;72.00;16.30;99543.00;;;;4992525;28;20228;-72
2024/02/22 01:22:19;;;;;;;3.53;3.22;;;14.80;72.10;16.30;99542.00;;;;4992157;28;20221;-72
2024/02/22 01:24:48;;;;;;;3.72;3.42;;;14.70;72.00;16.30;99539.00;;;;5004639;28;20709;-71
2024/02/22 01:27:15;;;;;;;2.83;2.63;;;14.80;72.10;16.30;99530.00;;;;5011604;28;20292;-72
2024/02/22 01:29:43;;;;;;;3.90;3.50;;;14.80;72.10;16.30;99527.00;;;;5011091;28;20296;-72
2024/02/22 01:32:10;;;;;;;4.05;2.88;;;14.80;72.10;16.30;99535.00;;;;5010910;28;20531;-72
2024/02/22 01:34:37;;;;;;;3.55;3.08;;;14.80;72.10;16.30;99530.00;;;;5011334;28;20280;-72
2024/02/22 01:37:04;;;;;;;3.40;3.10;;;14.80;72.10;16.30;99521.00;;;;4992748;28;20228;-72
2024/02/22 01:39:31;;;;;;;3.20;2.90;;;14.80;72.10;16.30;99522.00;;;;4992717;28;20280;-72
2024/02/22 01:42:00;;;;;;;4.07;3.58;;;14.80;72.10;16.30;99531.00;;;;4991400;28;20749;-72
2024/02/22 01:44:29;;;;;;;3.50;3.20;;;14.80;72.10;16.30;99516.00;;;;4993039;28;20285;-71
2024/02/22 01:46:56;;;;;;;3.45;3.15;;;14.80;72.10;16.30;99514.00;;;;4995543;28;20540;-72
2024/02/22 01:49:25;;;;;;;3.65;3.20;;;14.80;72.10;16.30;99519.00;;;;4994878;28;20633;-71
2024/02/22 01:51:59;;;;;;;4.00;3.65;;;14.80;72.10;16.30;99517.00;;;;4995701;28;20225;-72
2024/02/22 01:54:27;;;;;;;5.15;3.90;;;14.80;72.10;16.30;99502.00;;;;4996036;28;20193;-71
2024/02/22 01:56:56;;;;;;;6.35;4.10;;;14.80;72.10;16.30;99503.00;;;;4996373;28;20197;-71
2024/02/22 01:59:24;;;;;;;4.90;3.75;;;14.80;72.10;16.30;99499.00;;;;5000296;28;20737;-71
2024/02/22 02:01:51;;;;;;;6.10;4.70;;;14.80;72.10;16.30;99496.00;;;;4995541;28;20225;-71
2024/02/22 02:04:20;;;;;;;7.68;4.75;;;14.80;72.10;16.30;99493.00;;;;4995427;28;20201;-72
2024/02/22 02:06:47;;;;;;;6.25;5.03;;;14.80;72.10;16.30;99485.00;;;;4995255;28;20673;-72
2024/02/22 02:09:15;;;;;;;6.30;5.30;;;14.80;72.10;16.30;99485.00;;;;4995582;28;20196;-72
2024/02/22 02:11:42;;;;;;;6.82;5.30;;;14.80;72.10;16.30;99472.00;;;;5000448;28;20193;-72
2024/02/22 02:14:09;;;;;;;7.85;5.18;;;14.80;72.10;16.30;99474.00;;;;5002978;28;20225;-71
2024/02/22 02:16:37;;;;;;;9.85;5.45;;;14.80;72.10;16.30;99475.00;;;;5015143;28;20291;-71
2024/02/22 02:19:11;;;;;;;8.90;6.22;;;14.80;72.20;16.30;99474.00;;;;5014380;28;20292;-71
2024/02/22 02:21:45;;;;;;;7.68;6.05;;;14.90;72.30;16.30;99472.00;;;;5014917;28;20197;-71
2024/02/22 02:24:26;;;;;;;8.57;5.82;;;14.80;72.20;16.30;99476.00;;;;5013160;28;20283;-71
2024/02/22 02:26:56;;;;;;;10.10;6.05;;;14.90;72.30;16.30;99475.00;;;;5011521;28;20205;-71
2024/02/22 02:29:24;;;;;;;9.90;5.50;;;14.90;72.20;16.40;99475.00;;;;4999490;28;20198;-72
2024/02/22 02:31:52;;;;;;;13.00;6.07;;;14.80;72.10;16.40;99472.00;;;;5013694;28;20223;-72
2024/02/22 02:34:19;;;;;;;9.07;6.20;;;14.90;72.20;16.40;99473.00;;;;5013966;28;20251;-71
2024/02/22 02:36:46;;;;;;;10.57;5.40;;;14.90;72.20;16.40;99469.00;;;;5005152;28;20202;-71
2024/02/22 02:39:13;;;;;;;10.32;5.72;;;14.90;72.20;16.40;99462.00;;;;4995415;28;20285;-71
2024/02/22 02:41:40;;;;;;;12.35;6.00;;;14.90;72.20;16.40;99461.00;;;;4994336;28;20549;-71
2024/02/22 02:44:09;;;;;;;12.48;5.70;;;14.90;72.20;16.40;99463.00;;;;4994734;28;20276;-71
2024/02/22 02:46:36;;;;;;;10.95;5.85;;;14.90;72.20;16.40;99460.00;;;;4994681;28;20313;-71
2024/02/22 02:49:03;;;;;;;10.25;6.13;;;14.90;72.20;16.40;99463.00;;;;5009079;28;20224;-71
2024/02/22 02:51:31;;;;;;;11.68;5.47;;;14.90;72.20;16.40;99455.00;;;;5007534;28;20279;-72
2024/02/22 02:53:58;;;;;;;8.55;4.68;;;14.90;72.20;16.40;99461.00;;;;5004067;28;20197;-71
2024/02/22 02:56:25;;;;;;;10.82;5.75;;;14.90;72.20;16.40;99462.00;;;;4992915;28;20193;-71
2024/02/22 02:58:52;;;;;;;9.73;4.35;;;14.90;72.10;16.40;99451.00;;;;4994621;28;20300;-71
2024/02/22 03:01:20;;;;;;;14.80;4.35;;;14.90;72.10;16.40;99447.00;;;;4994305;28;20200;-71
2024/02/22 03:03:47;;;;;;;13.20;4.35;;;14.90;72.10;16.40;99460.00;;;;4996351;28;20213;-71
2024/02/22 03:06:14;;;;;;;9.43;4.30;;;14.90;72.00;16.40;99447.00;;;;5009500;28;20201;-71
2024/02/22 03:08:42;;;;;;;11.73;4.57;;;14.90;72.00;16.40;99448.00;;;;4994623;28;20284;-72
2024/02/22 03:11:09;;;;;;;13.07;4.90;;;14.90;72.00;16.40;99445.00;;;;5013851;28;20216;-72
2024/02/22 03:13:36;;;;;;;10.80;4.40;;;14.90;72.00;16.40;99443.00;;;;5013045;28;20299;-71
2024/02/22 03:16:04;;;;;;;14.63;4.55;;;14.90;72.00;16.40;99438.00;;;;5001663;28;20194;-72
2024/02/22 03:18:34;;;;;;;11.75;3.55;;;14.90;71.90;16.40;99436.00;;;;5009993;28;20587;-72
2024/02/22 03:21:01;;;;;;;11.85;4.07;;;14.90;71.90;16.40;99436.00;;;;5009298;28;20202;-72
2024/02/22 03:23:28;;;;;;;11.98;3.67;;;14.90;71.90;16.40;99436.00;;;;4994091;28;20323;-72
2024/02/22 03:25:56;;;;;;;8.13;3.47;;;14.90;71.90;16.40;99426.00;;;;4993684;28;20280;-72
2024/02/22 03:28:23;;;;;;;13.25;4.93;;;14.90;71.90;16.40;99431.00;;;;5006876;28;20247;-72
2024/02/22 03:30:52;;;;;;;11.07;3.40;;;14.90;71.90;16.50;99427.00;;;;4994638;28;20527;-72
2024/02/22 03:33:19;;;;;;;12.70;3.92;;;14.90;71.90;16.50;99416.00;;;;4993547;28;20194;-73
2024/02/22 03:35:49;;;;;;;9.30;3.85;;;14.90;71.80;16.50;99416.00;;;;4993895;28;20614;-72
2024/02/22 03:38:16;;;;;;;9.73;3.72;;;14.90;71.80;16.50;99409.00;;;;4994440;28;20197;-71
2024/02/22 03:40:43;;;;;;;9.48;3.90;;;14.90;71.80;16.50;99419.00;;;;4993705;28;20292;-72
2024/02/22 03:43:10;;;;;;;12.23;3.70;;;14.90;71.80;16.50;99397.00;;;;4993200;28;20316;-72
2024/02/22 03:45:37;;;;;;;10.35;4.30;;;14.90;71.70;16.40;99400.00;;;;4994175;28;20280;-72
2024/02/22 03:48:06;;;;;;;13.70;3.80;;;14.90;71.60;16.40;99407.00;;;;4993580;28;20198;-72
2024/02/22 03:50:33;;;;;;;14.52;4.22;;;14.90;71.60;16.40;99399.00;;;;4996400;28;20284;-72
2024/02/22 03:53:02;;;;;;;13.30;4.57;;;14.90;71.60;16.40;99396.00;;;;4995358;28;20196;-72
2024/02/22 03:55:30;;;;;;;12.13;4.80;;;14.90;71.60;16.40;99397.00;;;;5005249;28;20320;-72
2024/02/22 03:57:57;;;;;;;8.15;3.63;;;14.90;71.50;16.40;99392.00;;;;4993445;28;20221;-72
2024/02/22 04:00:24;;;;;;;17.80;4.30;;;14.90;71.60;16.40;99396.00;;;;4992564;28;20665;-72
2024/02/22 04:02:53;;;;;;;13.93;4.93;;;14.90;71.60;16.40;99389.00;;;;4992625;28;20304;-72
2024/02/22 04:05:20;;;;;;;9.10;3.65;;;14.90;71.60;16.40;99383.00;;;;4993290;28;20655;-72
2024/02/22 04:07:48;;;;;;;12.38;4.32;;;14.80;71.60;16.40;99376.00;;;;5002240;28;20283;-72
2024/02/22 04:10:17;;;;;;;10.38;3.20;;;14.80;71.50;16.30;99370.00;;;;5011487;28;20201;-71
2024/02/22 04:12:44;;;;;;;11.85;3.70;;;14.80;71.60;16.40;99367.00;;;;5002821;28;20261;-72
2024/02/22 04:15:11;;;;;;;11.48;3.83;;;14.80;71.50;16.40;99366.00;;;;4992506;28;20679;-72
2024/02/22 04:17:38;;;;;;;13.45;3.97;;;14.80;71.50;16.30;99364.00;;;;4992426;28;20682;-72
2024/02/22 04:20:07;;;;;;;13.30;3.33;;;14.80;71.40;16.30;99360.00;;;;4992874;28;20313;-72
2024/02/22 04:22:46;;;;;;;11.68;3.88;;;14.80;71.50;16.20;99353.00;;;;4992827;28;20226;-72
2024/02/22 04:25:14;;;;;;;10.63;3.50;;;14.80;71.60;16.30;99356.00;;;;4992744;28;20190;-72
2024/02/22 04:27:42;;;;;;;10.25;3.67;;;14.80;71.40;16.30;99352.00;;;;4993252;28;20204;-72
2024/02/22 04:30:11;;;;;;;10.27;3.45;;;14.80;71.40;16.30;99343.00;;;;4992878;28;20284;-71
2024/02/22 04:32:38;;;;;;;9.90;3.58;;;14.80;71.50;16.30;99342.00;;;;4992489;28;20201;-72
2024/02/22 04:35:06;;;;;;;10.60;2.65;;;14.80;71.50;16.30;99330.00;;;;4992629;28;20606;-71
2024/02/22 04:37:34;;;;;;;12.68;3.33;;;14.80;71.50;16.30;99341.00;;;;4992540;28;20198;-72
2024/02/22 04:40:02;;;;;;;12.10;3.20;;;14.80;71.40;16.30;99335.00;;;;4992369;28;20221;-72
2024/02/22 04:42:30;;;;;;;10.55;3.13;;;14.70;71.40;16.30;99330.00;;;;4992542;28;20656;-72
2024/02/22 04:44:59;;;;;;;7.75;3.10;;;14.70;71.40;16.30;99328.00;;;;4995916;28;20201;-72
2024/02/22 04:47:26;;;;;;;7.43;3.42;;;14.80;71.50;16.40;99326.00;;;;4996734;28;20601;-72
2024/02/22 04:49:53;;;;;;;10.93;3.97;;;14.70;71.40;16.30;99325.00;;;;4992633;28;20624;-72
2024/02/22 04:52:20;;;;;;;13.75;3.83;;;14.70;71.40;16.40;99327.00;;;;4992211;28;20671;-72
2024/02/22 04:54:47;;;;;;;12.70;3.85;;;14.70;71.30;16.40;99330.00;;;;4992206;28;20619;-72
2024/02/22 04:57:14;;;;;;;9.32;3.58;;;14.70;71.30;16.40;99325.00;;;;4992579;28;20280;-72
2024/02/22 04:59:41;;;;;;;8.02;3.28;;;14.70;71.40;16.30;99321.00;;;;4992716;28;20288;-72
2024/02/22 05:02:10;;;;;;;8.32;3.38;;;14.70;71.30;16.30;99318.00;;;;4991370;28;20284;-72
2024/02/22 05:04:37;;;;;;;11.05;3.70;;;14.70;71.20;16.30;99313.00;;;;5008094;28;20259;-72
2024/02/22 05:07:05;;;;;;;8.45;3.42;;;14.70;71.20;16.30;99313.00;;;;5011615;28;20291;-72
2024/02/22 05:09:32;;;;;;;10.02;2.85;;;14.70;71.20;16.30;99313.00;;;;5000971;28;20289;-72
2024/02/22 05:11:59;;;;;;;9.10;2.90;;;14.70;71.20;16.30;99316.00;;;;4991699;28;20289;-72
2024/02/22 05:14:26;;;;;;;11.48;3.70;;;14.70;71.20;16.30;99299.00;;;;5002729;28;20355;-72
2024/02/22 05:16:53;;;;;;;12.27;3.10;;;14.70;71.20;16.30;99291.00;;;;5011983;28;20295;-72
2024/02/22 05:19:21;;;;;;;10.13;3.00;;;14.70;71.20;16.20;99299.00;;;;5012143;28;20204;-72
2024/02/22 05:21:51;;;;;;;7.90;3.50;;;14.70;71.20;16.20;99300.00;;;;4996767;28;20221;-72
2024/02/22 05:24:19;;;;;;;9.32;3.17;;;14.60;71.10;16.20;99298.00;;;;4995258;28;20288;-72
2024/02/22 05:26:46;;;;;;;8.82;2.80;;;14.60;71.10;16.20;99290.00;;;;4995814;28;20280;-72
2024/02/22 05:29:13;;;;;;;12.30;3.03;;;14.60;71.10;16.20;99286.00;;;;4996099;28;20662;-72
2024/02/22 05:31:40;;;;;;;8.38;2.83;;;14.60;71.00;16.20;99284.00;;;;4995709;28;20658;-72
2024/02/22 05:34:08;;;;;;;8.20;2.55;;;14.60;71.00;16.20;99275.00;;;;5009028;28;20292;-72
2024/02/22 05:36:36;;;;;;;8.98;2.70;;;14.60;70.90;16.10;99278.00;;;;5014565;28;20251;-72
2024/02/22 05:39:06;;;;;;;9.77;2.92;;;14.50;70.80;16.10;99269.00;;;;4995654;28;20198;-72
2024/02/22 05:41:34;;;;;;;6.07;2.25;;;14.50;70.70;16.10;99259.00;;;;5001611;28;20259;-72
2024/02/22 05:44:01;;;;;;;7.60;2.97;;;14.50;70.70;16.10;99265.00;;;;5000434;28;20312;-72
2024/02/22 05:46:28;;;;;;;7.00;2.08;;;14.50;70.70;16.00;99271.00;;;;4995272;28;20297;-72
2024/02/22 05:48:56;;;;;;;8.80;2.10;;;14.50;70.70;16.00;99266.00;;;;5013891;28;20284;-72
2024/02/22 05:51:23;;;;;;;5.18;2.22;;;14.40;70.70;16.00;99265.00;;;;5014762;28;20292;-72
2024/02/22 05:53:53;;;;;;;5.05;2.20;;;14.40;70.80;16.00;99271.00;;;;5007057;28;20220;-72
2024/02/22 05:56:20;;;;;;;7.20;2.28;;;14.40;70.80;16.00;99273.00;;;;5015258;28;20233;-72
2024/02/22 05:58:48;;;;;;;11.30;2.97;;;14.40;70.80;16.00;99281.00;;;;4996215;28;20214;-72
2024/02/22 06:01:18;;;;;;;9.13;1.90;;;14.40;70.80;15.90;99273.00;;;;5001866;28;20292;-72
2024/02/22 06:03:45;;;;;;;8.65;2.13;;;14.40;70.80;16.00;99265.00;;;;5014108;28;20252;-72
2024/02/22 06:06:12;;;;;;;10.02;2.17;;;14.30;70.70;15.90;99266.00;;;;5014689;28;20205;-72
2024/02/22 06:08:42;;;;;;;11.38;1.90;;;14.30;70.60;15.90;99258.00;;;;5014425;28;20205;-72
2024/02/22 06:11:10;;;;;;;5.78;1.55;;;14.30;70.60;15.80;99247.00;;;;5008244;28;20696;-71
2024/02/22 06:13:38;;;;;;;9.25;1.90;;;14.30;70.50;15.80;99232.00;;;;4994708;28;20305;-71
2024/02/22 06:16:06;;;;;;;12.73;2.30;;;14.30;70.40;15.80;99224.00;;;;4995388;28;20228;-71
2024/02/22 06:18:33;;;;;;;12.55;2.50;;;14.20;70.20;15.70;99224.00;;;;4995069;28;20284;-71
2024/02/22 06:21:00;;;;;;;6.88;1.75;;;14.20;70.20;15.70;99230.00;;;;4999196;28;20197;-71
2024/02/22 06:23:27;;;;;;;11.00;2.50;;;14.10;70.10;15.60;99227.00;;;;4995423;28;20227;-71
2024/02/22 06:25:56;;;;;;;4.65;2.15;;;14.00;70.00;15.60;99219.00;;;;4994723;28;20238;-71
2024/02/22 06:28:24;;;;;;;8.30;1.73;;;14.00;70.00;15.50;99218.00;;;;4995079;28;20201;-71
2024/02/22 06:30:52;;;;;;;7.43;2.35;;;13.90;70.00;15.50;99213.00;;;;4995920;28;20288;-71
2024/02/22 06:33:19;;;;;;;7.43;1.80;;;13.90;70.00;15.40;99212.00;;;;4994489;28;20280;-72
2024/02/22 06:35:49;;;;;;;6.82;2.25;;;13.90;70.00;15.40;99217.00;;;;4994935;28;20241;-72
2024/02/22 06:38:16;;;;;;;6.85;2.10;;;13.80;70.00;15.40;99215.00;;;;5001941;28;20216;-71
2024/02/22 06:40:49;;;;;;;8.95;2.17;;;13.70;70.00;15.20;99204.00;;;;5012008;28;20204;-71
2024/02/22 06:43:16;;;;;;;7.30;1.65;;;13.70;70.00;15.20;99203.00;;;;4994528;28;20216;-72
2024/02/22 06:45:45;;;;;;;7.15;2.20;;;13.60;70.00;15.20;99196.00;;;;4994864;28;20296;-71
2024/02/22 06:48:12;;;;;;;4.88;1.95;;;13.60;70.00;15.20;99191.00;;;;4994670;28;20233;-71
2024/02/22 06:50:39;;;;;;;5.38;2.08;;;13.60;70.10;15.10;99180.00;;;;4995793;28;20280;-72
2024/02/22 06:53:07;;;;;;;6.93;2.20;;;13.50;70.10;15.10;99173.00;;;;4998405;28;20205;-71
2024/02/22 06:55:34;;;;;;;8.38;1.98;;;13.50;70.20;15.10;99175.00;;;;4994375;28;20194;-72
2024/02/22 06:58:03;;;;;;;8.25;2.17;;;13.40;70.20;15.00;99165.00;;;;4994294;28;20256;-72
2024/02/22 07:00:32;;;;;;;6.55;2.15;;;13.40;70.30;15.00;99165.00;;;;4994278;28;20203;-71
2024/02/22 07:03:01;;;;;;;5.35;2.08;;;13.30;70.30;15.00;99159.00;;;;5000609;28;20695;-72
2024/02/22 07:05:29;;;;;;;5.18;2.03;;;13.30;70.50;15.00;99148.00;;;;4994175;28;20271;-72
2024/02/22 07:07:56;;;;;;;11.68;2.95;;;13.30;70.60;15.00;99157.00;;;;4994670;28;20197;-72
2024/02/22 07:10:23;;;;;;;4.57;1.80;;;13.30;70.80;15.00;99156.00;;;;4989929;28;20201;-72
2024/02/22 07:12:51;;;;;;;8.05;2.70;;;13.30;71.00;15.00;99140.00;;;;4998931;28;20313;-72
2024/02/22 07:15:18;;;;;;;6.65;1.83;;;13.30;71.10;15.10;99125.00;;;;4986720;28;20260;-72
2024/02/22 07:17:45;;;;;;;9.30;2.17;;;13.30;71.30;15.10;99121.00;;;;4994196;28;20293;-72
2024/02/22 07:20:17;;;;;;;10.25;2.40;;;13.30;71.40;15.10;99126.00;;;;4999368;28;20198;-72
2024/02/22 07:22:47;;;;;;;8.48;2.45;;;13.40;71.50;15.20;99126.00;;;;4993791;28;20205;-72
2024/02/22 07:25:16;;;;;;;7.53;3.00;;;13.40;71.50;15.20;99127.00;;;;5002145;28;20464;-72
2024/02/22 07:27:43;;;;;;;7.63;3.15;;;13.40;71.60;15.30;99117.00;;;;4988980;28;20224;-72
2024/02/22 07:30:13;;;;;;;8.52;3.10;;;13.50;71.70;15.30;99128.00;;;;4985894;28;20205;-72
2024/02/22 07:32:40;;;;;;;10.00;3.33;;;13.50;71.70;15.30;99122.00;;;;4992183;28;20202;-72
2024/02/22 07:35:09;;;;;;;9.95;4.10;;;13.60;71.70;15.30;99118.00;;;;4994907;28;20198;-72
2024/02/22 07:37:37;;;;;;;8.10;3.45;;;13.60;71.70;15.30;99116.00;;;;4994800;28;21402;-72
2024/02/22 07:40:07;;;;;;;10.18;4.57;;;13.60;71.60;15.30;99121.00;;;;4997028;28;20205;-72
2024/02/22 07:42:34;;;;;;;7.03;3.58;;;13.60;71.60;15.40;99115.00;;;;5011847;28;20205;-72
2024/02/22 07:45:04;;;;;;;7.03;4.05;;;13.60;71.60;15.40;99108.00;;;;5013521;28;20679;-72
2024/02/22 07:47:31;;;;;;;11.05;4.38;;;13.70;71.70;15.40;99100.00;;;;4994675;28;20197;-72
2024/02/22 07:49:58;;;;;;;6.00;3.45;;;13.70;71.80;15.40;99089.00;;;;5007350;28;20287;-72
2024/02/22 07:52:25;;;;;;;8.65;3.92;;;13.70;71.80;15.40;99077.00;;;;5003776;28;20301;-72
2024/02/22 07:54:53;;;;;;;7.95;3.72;;;13.80;71.90;15.50;99085.00;;;;5021798;28;20303;-72
2024/02/22 07:57:20;;;;;;;7.30;4.05;;;13.80;72.00;15.50;99076.00;;;;5001053;28;20239;-72
2024/02/22 07:59:47;;;;;;;5.13;4.00;;;13.80;72.00;15.50;99073.00;;;;5002477;28;20292;-72
2024/02/22 08:02:14;;;;;;;8.73;4.05;;;13.90;72.10;15.60;99058.00;;;;4992455;28;20292;-72
2024/02/22 08:04:42;;;;;;;7.90;3.55;;;13.90;72.10;15.60;99064.00;;;;5002905;28;20299;-72
2024/02/22 08:07:09;;;;;;;6.82;3.45;;;13.90;72.10;15.60;99058.00;;;;5006628;28;20281;-72
2024/02/22 08:09:36;;;;;;;8.75;3.67;;;14.00;72.10;15.70;99053.00;;;;5007045;28;20667;-72
2024/02/22 08:12:06;;;;;;;9.85;3.60;;;14.00;72.10;15.70;99047.00;;;;4992624;28;20288;-72
2024/02/22 08:14:33;;;;;;;5.10;3.40;;;14.00;72.00;15.70;99033.00;;;;5010946;28;20319;-72
2024/02/22 08:17:00;;;;;;;9.20;3.67;;;14.10;72.10;15.80;99029.00;;;;5012374;28;20209;-72
2024/02/22 08:19:29;;;;;;;4.47;2.85;;;14.10;72.10;15.80;99023.00;;;;4999032;28;20190;-72
2024/02/22 08:21:57;;;;;;;5.85;3.00;;;14.10;72.10;15.90;99014.00;;;;5015564;28;20340;-72
2024/02/22 08:24:23;;;;;;;7.50;3.15;;;14.20;72.20;15.90;99012.00;;;;4998575;28;20235;-72
2024/02/22 08:26:50;;;;;;;6.18;3.03;;;14.20;72.10;16.00;99005.00;;;;5007760;28;20211;-72
2024/02/22 08:29:19;;;;;;;4.57;2.53;;;14.20;72.00;16.00;98998.00;;;;5014966;28;20189;-72
2024/02/22 08:31:47;;;;;;;7.13;3.00;;;14.30;72.10;16.00;98989.00;;;;5019098;28;20296;-73
2024/02/22 08:34:14;;;;;;;4.63;2.67;;;14.30;72.00;16.10;98994.00;;;;4991896;28;20224;-72
2024/02/22 08:36:41;;;;;;;5.85;2.55;;;14.40;72.10;16.10;99000.00;;;;4992037;28;20297;-72
2024/02/22 08:39:08;;;;;;;3.65;2.30;;;14.40;72.10;16.10;98982.00;;;;5008208;28;20614;-72
2024/02/22 08:41:35;;;;;;;4.07;2.90;;;14.40;72.10;16.20;98967.00;;;;4990018;28;20638;-72
2024/02/22 08:44:05;;;;;;;3.60;2.67;;;14.50;72.10;16.30;98975.00;;;;4998112;28;20251;-71
2024/02/22 08:46:33;;;;;;;3.70;2.53;;;14.50;72.00;16.30;98974.00;;;;4992664;28;20229;-73
2024/02/22 08:49:00;;;;;;;4.53;2.60;;;14.50;71.90;16.30;98967.00;;;;4998948;28;20189;-72
2024/02/22 08:51:27;;;;;;;3.25;2.40;;;14.60;71.80;16.30;98964.00;;;;5011262;28;20284;-73
2024/02/22 08:53:55;;;;;;;3.08;2.28;;;14.60;71.80;16.30;98959.00;;;;4997939;28;20291;-72
2024/02/22 08:56:23;;;;;;;3.08;2.25;;;14.70;71.70;16.40;98954.00;;;;4998375;28;20232;-73
2024/02/22 08:58:50;;;;;;;4.03;2.53;;;14.70;71.70;16.40;98946.00;;;;4999107;28;20291;-72
2024/02/22 09:01:20;;;;;;;4.70;2.25;;;14.70;72.30;16.40;98921.00;;;;4991766;28;20208;-73
2024/02/22 09:03:49;;;;;;;4.30;3.47;;;14.80;71.70;16.50;98909.00;;;;4999097;28;20221;-72
2024/02/22 09:06:16;;;;;;;4.35;2.45;;;14.80;71.60;16.50;98905.00;;;;4990502;28;20614;-72
2024/02/22 09:08:44;;;;;;;3.25;2.42;;;14.80;71.60;16.60;98902.00;;;;4994455;28;20623;-72
2024/02/22 09:11:12;;;;;;;2.90;2.40;;;14.90;71.60;16.60;98905.00;;;;4990730;28;20197;-72
2024/02/22 09:13:39;;;;;;;4.65;2.13;;;14.90;71.60;16.60;98900.00;;;;5000910;28;20235;-72
2024/02/22 09:16:08;;;;;;;4.63;2.88;;;14.90;71.60;16.70;98891.00;;;;5000520;28;20645;-72
2024/02/22 09:18:36;;;;;;;3.30;2.60;;;14.90;71.50;16.70;98896.00;;;;4995301;28;20713;-72
2024/02/22 09:21:05;;;;;;;4.72;2.45;;;15.00;71.40;16.70;98888.00;;;;4990609;28;20292;-73
2024/02/22 09:23:32;;;;;;;4.15;2.75;;;15.00;71.30;16.70;98878.00;;;;4995268;28;20196;-73
2024/02/22 09:25:59;;;;;;;2.80;2.53;;;15.00;71.30;16.70;98876.00;;;;5003156;28;20315;-72
2024/02/22 09:28:26;;;;;;;3.35;2.30;;;15.00;71.30;16.80;98883.00;;;;5010597;28;20672;-73
2024/02/22 09:30:53;;;;;;;3.58;2.63;;;15.10;71.20;16.80;98873.00;;;;4999613;28;20212;-73
2024/02/22 09:33:20;;;;;;;2.53;2.03;;;15.10;71.20;16.90;98850.00;;;;4991854;28;20259;-72
2024/02/22 09:35:48;;;;;;;3.88;2.67;;;15.20;71.40;16.90;98854.00;;;;4997663;28;20197;-72
2024/02/22 09:38:16;;;;;;;3.38;2.70;;;15.20;71.30;16.90;98832.00;;;;5005966;28;20249;-73
2024/02/22 09:40:44;;;;;;;2.15;1.95;;;15.20;71.20;17.00;98826.00;;;;4992913;28;20284;-73
2024/02/22 09:43:14;;;;;;;2.35;2.10;;;15.20;71.20;17.00;98818.00;;;;4998518;28;20212;-73
2024/02/22 09:45:44;;;;;;;2.25;2.00;;;15.30;71.20;17.00;98807.00;;;;4991238;28;20691;-73
2024/02/22 09:48:11;;;;;;;2.47;2.00;;;15.30;71.10;17.00;98803.00;;;;4994233;28;20198;-72
2024/02/22 09:50:39;;;;;;;3.67;1.88;;;15.30;71.10;17.10;98784.00;;;;5009758;28;20292;-72
2024/02/22 09:53:07;;;;;;;2.03;1.85;;;15.40;71.20;17.10;98771.00;;;;4994140;28;20686;-72
2024/02/22 09:55:36;;;;;;;2.88;2.38;;;15.40;71.30;17.20;98769.00;;;;4997202;28;20280;-72
2024/02/22 09:58:04;;;;;;;2.65;2.17;;;15.50;71.30;17.20;98748.00;;;;4990683;28;20217;-72
2024/02/22 10:00:31;;;;;;;2.15;1.95;;;15.50;71.10;17.20;98734.00;;;;4995904;28;20189;-72
2024/02/22 10:02:59;;;;;;;2.65;2.10;;;15.60;71.10;17.30;98744.00;;;;4991840;28;20609;-73
2024/02/22 10:05:36;;;;;;;2.22;2.00;;;15.60;71.10;17.30;98751.00;;;;4992521;28;20288;-72
2024/02/22 10:08:11;;;;;;;2.40;2.03;;;15.70;71.10;17.40;98759.00;;;;4994660;28;20194;-72
2024/02/22 10:10:40;;;;;;;2.13;1.92;;;15.70;71.10;17.50;98761.00;;;;5006626;28;20266;-72
2024/02/22 10:13:19;;;;;;;2.28;1.92;;;15.80;71.20;17.50;98761.00;;;;5019423;28;20224;-72
2024/02/22 10:15:46;;;;;;;2.53;2.33;;;15.80;71.10;17.60;98747.00;;;;5014339;28;20206;-73
2024/02/22 10:18:13;;;;;;;4.18;2.50;;;15.90;71.00;17.60;98746.00;;;;5018272;28;20222;-72
2024/02/22 10:20:41;;;;;;;2.15;1.95;;;16.00;70.80;17.60;98737.00;;;;5017799;28;20232;-72
2024/02/22 10:23:09;;;;;;;2.22;2.13;;;16.00;70.60;17.70;98736.00;;;;5022522;28;20193;-73
2024/02/22 10:25:40;;;;;;;2.50;2.30;;;16.00;70.50;17.70;98732.00;;;;5017981;28;20699;-72
2024/02/22 10:28:09;;;;;;;2.67;2.47;;;16.00;70.40;17.70;98724.00;;;;5024660;28;20205;-72
2024/02/22 10:30:36;;;;;;;2.60;2.40;;;16.10;70.30;17.70;98728.00;;;;5015457;28;20200;-72
2024/02/22 10:33:06;;;;;;;2.85;2.58;;;16.10;70.20;17.70;98720.00;;;;5015787;28;20212;-73
2024/02/22 10:35:34;;;;;;;4.20;2.30;;;16.10;69.90;17.70;98695.00;;;;5017036;28;20251;-72
2024/02/22 10:38:03;;;;;;;2.78;2.58;;;16.10;69.80;17.70;98663.00;;;;5017315;28;20251;-72
2024/02/22 10:40:35;;;;;;;2.80;2.28;;;16.10;69.80;17.70;98663.00;;;;5018230;28;20236;-72
2024/02/22 10:43:07;;;;;;;2.45;2.25;;;16.10;70.00;17.70;98685.00;;;;5017134;28;20199;-73
2024/02/22 10:45:36;;;;;;;2.33;2.13;;;16.10;70.00;17.80;98682.00;;;;5022763;28;20593;-73
2024/02/22 10:48:07;;;;;;;2.30;2.10;;;16.10;70.00;17.70;98662.00;;;;5014290;28;20197;-73
2024/02/22 10:50:36;;;;;;;1.95;1.80;;;16.20;70.50;17.80;98652.00;;;;5012547;28;20201;-73
2024/02/22 10:53:04;;;;;;;1.92;1.77;;;16.20;69.80;17.80;98642.00;;;;5001231;28;20193;-73
2024/02/22 10:55:38;;;;;;;1.67;1.58;;;16.20;69.80;17.70;98636.00;;;;5019801;28;20192;-73